Leyte Spirit — C6CG6 — position and weather

sailwx.info

Track history (hours):
 
Tides and Currents Weather Stations Pressure Air Temp Water Temp Dewpoint Dewpoint Depression Visibility Wind Speed Wind Dir Waves Ship Positions

Leyte Spirit

Last reported at 2018-Jun-04 01:06 UTC. Time now 2018-Jul-18 06:55 UTC.
Position N 28°36' W 093°28'.
Warning: this ship's position is 44 days out of date.

Length 243 m; draft 8.2 m.

Type: Tanker. MMSI: 311000466.

Date/timePositionNaut miles runAvg speedWind from/ knotsBaromVisibWave heightAir tempDewpointWater temp
2018-Jun-04 01:06N 28°36' W 093°28'511.8
2018-Jun-04 00:39N 28°39' W 093°33'211.9
2018-Jun-04 00:29N 28°40' W 093°35'711.1
2018-Jun-03 23:51N 28°42' W 093°43'411.7
2018-Jun-03 23:29N 28°42' W 093°47'711.7
2018-Jun-03 22:53N 28°42' W 093°56'1911.8
2018-Jun-03 21:17N 28°40' W 094°17'412.2
2018-Jun-03 21:00N 28°40' W 094°21'1012.3
2018-Jun-03 20:12N 28°39' W 094°32'712.0
2018-Jun-03 19:35N 28°38' W 094°40'312.1
2018-Jun-03 19:21N 28°38' W 094°44'2 4.3
2018-Jun-03 18:59N 28°38' W 094°45'77 1.6
2018-Jun-01 17:32N 29°29' W 093°40'012.0
2018-Jun-01 17:30N 29°29' W 093°41'612.5
2018-Jun-01 17:00N 29°34' W 093°46'611.7
2018-Jun-01 16:31N 29°39' W 093°50'5 9.6
2018-Jun-01 16:00N 29°43' W 093°52'4 7.9
2018-Jun-01 15:30N 29°46' W 093°55'3 6.6
2018-Jun-01 15:01N 29°48' W 093°57'3 6.5
2018-Jun-01 14:30N 29°52' W 093°56'3 5.6
2018-Jun-01 14:01N 29°54' W 093°54'3 5.8
2018-Jun-01 13:30N 29°56' W 093°52'3 5.7
2018-Jun-01 13:00N 29°59' W 093°52'3 6.0
2018-Jun-01 12:31N 29°59' W 093°56'3 5.1
2018-Jun-01 12:01N 30°01' W 093°58'1 2.2
2018-Jun-01 11:31N 30°01' W 093°59'0 0.0
2018-Jun-01 10:55N 30°01' W 093°59'0 0.0
2018-Jun-01 10:28N 30°01' W 093°59'0 0.0
2018-Jun-01 09:55N 30°01' W 093°59'0 0.0
2018-Jun-01 09:28N 30°01' W 093°59'0 0.0
2018-Jun-01 08:58N 30°01' W 093°59'0 0.0
2018-Jun-01 08:28N 30°01' W 093°59'0 0.0
2018-Jun-01 07:58N 30°01' W 093°59'0 0.0
2018-Jun-01 07:28N 30°01' W 093°59'0 0.0
2018-Jun-01 06:58N 30°01' W 093°59'0 0.0
2018-Jun-01 06:28N 30°01' W 093°59'0 0.0
2018-Jun-01 05:58N 30°01' W 093°59'0 0.0
2018-Jun-01 05:28N 30°01' W 093°59'0 0.0
2018-Jun-01 04:58N 30°01' W 093°59'0 0.0
2018-Jun-01 04:28N 30°01' W 093°59'0 0.0
2018-Jun-01 03:58N 30°01' W 093°59'0 0.0
2018-Jun-01 03:28N 30°01' W 093°59'0 0.0
2018-Jun-01 02:58N 30°01' W 093°59'0 0.0
2018-Jun-01 02:28N 30°01' W 093°59'0 0.0
2018-Jun-01 01:58N 30°01' W 093°59'0 0.0
2018-Jun-01 01:28N 30°01' W 093°59'0 0.0
2018-Jun-01 00:58N 30°01' W 093°59'0 0.0
2018-Jun-01 00:28N 30°01' W 093°59'0 0.0
2018-May-31 23:58N 30°01' W 093°59'0 0.0
2018-May-31 23:28N 30°01' W 093°59'0 0.0
2018-May-31 22:58N 30°01' W 093°59'0 0.0
2018-May-31 22:28N 30°01' W 093°59'0 0.0
2018-May-31 21:55N 30°01' W 093°59'0 0.0
2018-May-31 21:28N 30°01' W 093°59'0 0.0
2018-May-31 20:58N 30°01' W 093°59'0 0.0
2018-May-31 20:28N 30°01' W 093°59'0 0.0
2018-May-31 19:58N 30°01' W 093°59'0 0.0
2018-May-31 19:28N 30°01' W 093°59'0 0.0
2018-May-31 18:58N 30°01' W 093°59'0 0.0
2018-May-31 18:28N 30°01' W 093°59'0 0.0
2018-May-31 17:58N 30°01' W 093°59'0 0.0
2018-May-31 17:28N 30°01' W 093°59'0 0.0
2018-May-31 16:58N 30°01' W 093°59'0 0.0
2018-May-31 16:28N 30°01' W 093°59'0 0.0
2018-May-31 15:58N 30°01' W 093°59'0 0.0
2018-May-31 15:28N 30°01' W 093°59'0 0.0
2018-May-31 14:58N 30°01' W 093°59'0 0.0
2018-May-31 14:28N 30°01' W 093°59'0 0.0
2018-May-31 13:58N 30°01' W 093°59'0 0.0
2018-May-31 13:28N 30°01' W 093°59'0 0.0
2018-May-31 12:58N 30°01' W 093°59'0 0.0
2018-May-31 12:28N 30°01' W 093°59'0 0.0
2018-May-31 11:58N 30°01' W 093°59'0 0.0
2018-May-31 11:28N 30°01' W 093°59'0 0.0
2018-May-31 10:55N 30°01' W 093°59'0 0.0
2018-May-31 10:28N 30°01' W 093°59'0 0.0
2018-May-31 09:58N 30°01' W 093°59'0 0.0
2018-May-31 09:28N 30°01' W 093°59'0 0.0
2018-May-31 08:58N 30°01' W 093°59'0 0.0
2018-May-31 08:28N 30°01' W 093°59'0 0.0
2018-May-31 07:58N 30°01' W 093°59'0 0.0
2018-May-31 07:28N 30°01' W 093°59'0 0.0
2018-May-31 06:58N 30°01' W 093°59'0 0.0
2018-May-31 06:28N 30°01' W 093°59'0 0.0
2018-May-31 05:58N 30°01' W 093°59'0 0.0
2018-May-31 05:28N 30°01' W 093°59'0 0.0
2018-May-31 04:58N 30°01' W 093°59'0 0.0
2018-May-31 04:28N 30°01' W 093°59'0 0.0
2018-May-31 03:58N 30°01' W 093°59'0 0.0
2018-May-31 03:28N 30°01' W 093°59'0 0.0
2018-May-31 02:58N 30°01' W 093°59'0 0.0
2018-May-31 02:28N 30°01' W 093°59'0 0.0
2018-May-31 01:58N 30°01' W 093°59'0 0.0
2018-May-31 01:28N 30°01' W 093°59'0 0.0
2018-May-31 00:58N 30°01' W 093°59'0 0.0
2018-May-31 00:28N 30°01' W 093°59'0 0.0
2018-May-30 23:58N 30°01' W 093°59'0 0.0
2018-May-30 23:28N 30°01' W 093°59'0 0.0
2018-May-30 22:58N 30°01' W 093°59'0 0.0
2018-May-30 22:28N 30°01' W 093°59'0 0.0
2018-May-30 21:58N 30°01' W 093°59'0 0.0
2018-May-30 21:28N 30°01' W 093°59'0 0.0
2018-May-30 20:49N 30°01' W 093°59'0 0.0
2018-May-30 20:28N 30°01' W 093°59'0 0.0
2018-May-30 19:58N 30°01' W 093°59'0 0.0
2018-May-30 19:28N 30°01' W 093°59'0 0.0
2018-May-30 18:58N 30°01' W 093°59'0 0.0
2018-May-30 18:25N 30°01' W 093°59'0 0.0
2018-May-30 17:52N 30°01' W 093°59'0 0.0
2018-May-30 17:28N 30°01' W 093°59'0 0.0
2018-May-30 16:58N 30°01' W 093°59'0 0.0
2018-May-30 16:28N 30°01' W 093°59'0 0.0
2018-May-30 15:58N 30°01' W 093°59'0 0.0
2018-May-30 15:28N 30°01' W 093°59'0 0.0
2018-May-30 14:58N 30°01' W 093°59'0 0.0
2018-May-30 14:28N 30°01' W 093°59'0 0.0
2018-May-30 13:58N 30°01' W 093°59'0 0.0
2018-May-30 13:28N 30°01' W 093°59'0 0.0
2018-May-30 12:58N 30°01' W 093°59'0 0.0
2018-May-30 12:28N 30°01' W 093°59'0 0.0
2018-May-30 11:58N 30°01' W 093°59'0 0.0
2018-May-30 11:28N 30°01' W 093°59'0 0.0
2018-May-30 10:58N 30°01' W 093°59'0 0.0
2018-May-30 10:22N 30°01' W 093°59'0 0.0
2018-May-30 09:58N 30°01' W 093°59'0 0.0
2018-May-30 09:28N 30°01' W 093°59'0 0.0
2018-May-30 08:58N 30°01' W 093°59'0 0.0
2018-May-30 08:28N 30°01' W 093°59'0 0.0
2018-May-30 07:58N 30°01' W 093°59'0 0.0
2018-May-30 07:28N 30°01' W 093°59'0 0.0
2018-May-30 06:58N 30°01' W 093°59'0 0.0
2018-May-30 06:25N 30°01' W 093°59'0 0.0
2018-May-30 05:58N 30°01' W 093°59'0 0.0
2018-May-30 05:28N 30°01' W 093°59'0 0.0
2018-May-30 04:58N 30°01' W 093°59'0 0.0
2018-May-30 04:28N 30°01' W 093°59'0 0.0
2018-May-30 03:58N 30°01' W 093°59'0 0.0
2018-May-30 03:28N 30°01' W 093°59'0 0.0
2018-May-30 02:58N 30°01' W 093°59'0 0.0
2018-May-30 02:28N 30°01' W 093°59'0 0.0
2018-May-30 01:58N 30°01' W 093°59'0 0.0
2018-May-30 01:28N 30°01' W 093°59'0 0.0
2018-May-30 00:58N 30°01' W 093°59'0 0.0
2018-May-30 00:28N 30°01' W 093°59'0 0.0
2018-May-29 23:58N 30°01' W 093°59'0 0.3
2018-May-29 23:31N 30°01' W 093°60'2 3.5
2018-May-29 23:01N 30°01' W 093°57'3 6.2
2018-May-29 22:31N 29°59' W 093°54'3 5.9
2018-May-29 22:00N 29°58' W 093°51'4 7.2
2018-May-29 21:30N 29°55' W 093°54'4 8.2
2018-May-29 21:00N 29°51' W 093°57'4 7.1
2018-May-29 20:30N 29°48' W 093°57'4 8.9
2018-May-29 20:01N 29°45' W 093°53'5 9.2
2018-May-29 19:30N 29°41' W 093°50'510.0
2018-May-29 19:01N 29°37' W 093°48'612.5
2018-May-29 18:30N 29°32' W 093°44'5 9.4
2018-May-29 18:00N 29°28' W 093°40'4 4.6
2018-May-29 17:05N 29°24' W 093°39'0 1.3
2018-May-29 17:00N 29°24' W 093°38'0 0.2
2018-May-29 16:26N 29°24' W 093°38'0 0.0
2018-May-29 15:59N 29°24' W 093°38'0 0.0
2018-May-29 15:29N 29°24' W 093°38'0 0.0
2018-May-29 14:59N 29°24' W 093°38'0 0.0
2018-May-29 14:23N 29°24' W 093°38'0 0.0
2018-May-29 13:50N 29°24' W 093°38'0 0.0
2018-May-29 13:26N 29°24' W 093°38'0 0.0
2018-May-29 12:59N 29°24' W 093°38'0 0.0
2018-May-29 12:29N 29°24' W 093°38'0 0.0
2018-May-29 11:56N 29°24' W 093°38'0 0.0
2018-May-29 11:29N 29°24' W 093°38'0 0.0
2018-May-29 10:59N 29°24' W 093°38'0 0.1
2018-May-29 10:29N 29°24' W 093°38'0 0.0
2018-May-29 09:59N 29°24' W 093°38'0 0.0
2018-May-29 09:29N 29°24' W 093°38'0 0.0
2018-May-29 08:47N 29°24' W 093°38'0 0.0
2018-May-29 08:14N 29°24' W 093°38'0 0.0
2018-May-29 07:44N 29°24' W 093°38'0 0.0
2018-May-28 23:29N 29°24' W 093°39'0 0.0
2018-May-28 22:14N 29°24' W 093°39'0 0.1
2018-May-28 20:55N 29°24' W 093°39'  
Track history (hours):
 
Tides and Currents Weather Stations Pressure Air Temp Water Temp Dewpoint Dewpoint Depression Visibility Wind Speed Wind Dir Waves Ship Positions

Leyte Spirit

Last reported at 2018-Jun-04 01:06 UTC. Time now 2018-Jul-18 06:55 UTC.
Position N 28°36' W 093°28'.
Warning: this ship's position is 44 days out of date.

Length 243 m; draft 8.2 m.

Type: Tanker. MMSI: 311000466.

Date/timePositionNaut miles runAvg speedWind from/ knotsBaromVisibWave heightAir tempDewpointWater temp
2018-Jun-04 01:06N 28°36' W 093°28'511.8
2018-Jun-04 00:39N 28°39' W 093°33'211.9
2018-Jun-04 00:29N 28°40' W 093°35'711.1
2018-Jun-03 23:51N 28°42' W 093°43'411.7
2018-Jun-03 23:29N 28°42' W 093°47'711.7
2018-Jun-03 22:53N 28°42' W 093°56'1911.8
2018-Jun-03 21:17N 28°40' W 094°17'412.2
2018-Jun-03 21:00N 28°40' W 094°21'1012.3
2018-Jun-03 20:12N 28°39' W 094°32'712.0
2018-Jun-03 19:35N 28°38' W 094°40'312.1
2018-Jun-03 19:21N 28°38' W 094°44'2 4.3
2018-Jun-03 18:59N 28°38' W 094°45'77 1.6
2018-Jun-01 17:32N 29°29' W 093°40'012.0
2018-Jun-01 17:30N 29°29' W 093°41'612.5
2018-Jun-01 17:00N 29°34' W 093°46'611.7
2018-Jun-01 16:31N 29°39' W 093°50'5 9.6
2018-Jun-01 16:00N 29°43' W 093°52'4 7.9
2018-Jun-01 15:30N 29°46' W 093°55'3 6.6
2018-Jun-01 15:01N 29°48' W 093°57'3 6.5
2018-Jun-01 14:30N 29°52' W 093°56'3 5.6
2018-Jun-01 14:01N 29°54' W 093°54'3 5.8
2018-Jun-01 13:30N 29°56' W 093°52'3 5.7
2018-Jun-01 13:00N 29°59' W 093°52'3 6.0
2018-Jun-01 12:31N 29°59' W 093°56'3 5.1
2018-Jun-01 12:01N 30°01' W 093°58'1 2.2
2018-Jun-01 11:31N 30°01' W 093°59'0 0.0
2018-Jun-01 10:55N 30°01' W 093°59'0 0.0
2018-Jun-01 10:28N 30°01' W 093°59'0 0.0
2018-Jun-01 09:55N 30°01' W 093°59'0 0.0
2018-Jun-01 09:28N 30°01' W 093°59'0 0.0
2018-Jun-01 08:58N 30°01' W 093°59'0 0.0
2018-Jun-01 08:28N 30°01' W 093°59'0 0.0
2018-Jun-01 07:58N 30°01' W 093°59'0 0.0
2018-Jun-01 07:28N 30°01' W 093°59'0 0.0
2018-Jun-01 06:58N 30°01' W 093°59'0 0.0
2018-Jun-01 06:28N 30°01' W 093°59'0 0.0
2018-Jun-01 05:58N 30°01' W 093°59'0 0.0
2018-Jun-01 05:28N 30°01' W 093°59'0 0.0
2018-Jun-01 04:58N 30°01' W 093°59'0 0.0
2018-Jun-01 04:28N 30°01' W 093°59'0 0.0
2018-Jun-01 03:58N 30°01' W 093°59'0 0.0
2018-Jun-01 03:28N 30°01' W 093°59'0 0.0
2018-Jun-01 02:58N 30°01' W 093°59'0 0.0
2018-Jun-01 02:28N 30°01' W 093°59'0 0.0
2018-Jun-01 01:58N 30°01' W 093°59'0 0.0
2018-Jun-01 01:28N 30°01' W 093°59'0 0.0
2018-Jun-01 00:58N 30°01' W 093°59'0 0.0
2018-Jun-01 00:28N 30°01' W 093°59'0 0.0
2018-May-31 23:58N 30°01' W 093°59'0 0.0
2018-May-31 23:28N 30°01' W 093°59'0 0.0
2018-May-31 22:58N 30°01' W 093°59'0 0.0
2018-May-31 22:28N 30°01' W 093°59'0 0.0
2018-May-31 21:55N 30°01' W 093°59'0 0.0
2018-May-31 21:28N 30°01' W 093°59'0 0.0
2018-May-31 20:58N 30°01' W 093°59'0 0.0
2018-May-31 20:28N 30°01' W 093°59'0 0.0
2018-May-31 19:58N 30°01' W 093°59'0 0.0
2018-May-31 19:28N 30°01' W 093°59'0 0.0
2018-May-31 18:58N 30°01' W 093°59'0 0.0
2018-May-31 18:28N 30°01' W 093°59'0 0.0
2018-May-31 17:58N 30°01' W 093°59'0 0.0
2018-May-31 17:28N 30°01' W 093°59'0 0.0
2018-May-31 16:58N 30°01' W 093°59'0 0.0
2018-May-31 16:28N 30°01' W 093°59'0 0.0
2018-May-31 15:58N 30°01' W 093°59'0 0.0
2018-May-31 15:28N 30°01' W 093°59'0 0.0
2018-May-31 14:58N 30°01' W 093°59'0 0.0
2018-May-31 14:28N 30°01' W 093°59'0 0.0
2018-May-31 13:58N 30°01' W 093°59'0 0.0
2018-May-31 13:28N 30°01' W 093°59'0 0.0
2018-May-31 12:58N 30°01' W 093°59'0 0.0
2018-May-31 12:28N 30°01' W 093°59'0 0.0
2018-May-31 11:58N 30°01' W 093°59'0 0.0
2018-May-31 11:28N 30°01' W 093°59'0 0.0
2018-May-31 10:55N 30°01' W 093°59'0 0.0
2018-May-31 10:28N 30°01' W 093°59'0 0.0
2018-May-31 09:58N 30°01' W 093°59'0 0.0
2018-May-31 09:28N 30°01' W 093°59'0 0.0
2018-May-31 08:58N 30°01' W 093°59'0 0.0
2018-May-31 08:28N 30°01' W 093°59'0 0.0
2018-May-31 07:58N 30°01' W 093°59'0 0.0
2018-May-31 07:28N 30°01' W 093°59'0 0.0
2018-May-31 06:58N 30°01' W 093°59'0 0.0
2018-May-31 06:28N 30°01' W 093°59'0 0.0
2018-May-31 05:58N 30°01' W 093°59'0 0.0
2018-May-31 05:28N 30°01' W 093°59'0 0.0
2018-May-31 04:58N 30°01' W 093°59'0 0.0
2018-May-31 04:28N 30°01' W 093°59'0 0.0
2018-May-31 03:58N 30°01' W 093°59'0 0.0
2018-May-31 03:28N 30°01' W 093°59'0 0.0
2018-May-31 02:58N 30°01' W 093°59'0 0.0
2018-May-31 02:28N 30°01' W 093°59'0 0.0
2018-May-31 01:58N 30°01' W 093°59'0 0.0
2018-May-31 01:28N 30°01' W 093°59'0 0.0
2018-May-31 00:58N 30°01' W 093°59'0 0.0
2018-May-31 00:28N 30°01' W 093°59'0 0.0
2018-May-30 23:58N 30°01' W 093°59'0 0.0
2018-May-30 23:28N 30°01' W 093°59'0 0.0
2018-May-30 22:58N 30°01' W 093°59'0 0.0
2018-May-30 22:28N 30°01' W 093°59'0 0.0
2018-May-30 21:58N 30°01' W 093°59'0 0.0
2018-May-30 21:28N 30°01' W 093°59'0 0.0
2018-May-30 20:49N 30°01' W 093°59'0 0.0
2018-May-30 20:28N 30°01' W 093°59'0 0.0
2018-May-30 19:58N 30°01' W 093°59'0 0.0
2018-May-30 19:28N 30°01' W 093°59'0 0.0
2018-May-30 18:58N 30°01' W 093°59'0 0.0
2018-May-30 18:25N 30°01' W 093°59'0 0.0
2018-May-30 17:52N 30°01' W 093°59'0 0.0
2018-May-30 17:28N 30°01' W 093°59'0 0.0
2018-May-30 16:58N 30°01' W 093°59'0 0.0
2018-May-30 16:28N 30°01' W 093°59'0 0.0
2018-May-30 15:58N 30°01' W 093°59'0 0.0
2018-May-30 15:28N 30°01' W 093°59'0 0.0
2018-May-30 14:58N 30°01' W 093°59'0 0.0
2018-May-30 14:28N 30°01' W 093°59'0 0.0
2018-May-30 13:58N 30°01' W 093°59'0 0.0
2018-May-30 13:28N 30°01' W 093°59'0 0.0
2018-May-30 12:58N 30°01' W 093°59'0 0.0
2018-May-30 12:28N 30°01' W 093°59'0 0.0
2018-May-30 11:58N 30°01' W 093°59'0 0.0
2018-May-30 11:28N 30°01' W 093°59'0 0.0
2018-May-30 10:58N 30°01' W 093°59'0 0.0
2018-May-30 10:22N 30°01' W 093°59'0 0.0
2018-May-30 09:58N 30°01' W 093°59'0 0.0
2018-May-30 09:28N 30°01' W 093°59'0 0.0
2018-May-30 08:58N 30°01' W 093°59'0 0.0
2018-May-30 08:28N 30°01' W 093°59'0 0.0
2018-May-30 07:58N 30°01' W 093°59'0 0.0
2018-May-30 07:28N 30°01' W 093°59'0 0.0
2018-May-30 06:58N 30°01' W 093°59'0 0.0
2018-May-30 06:25N 30°01' W 093°59'0 0.0
2018-May-30 05:58N 30°01' W 093°59'0 0.0
2018-May-30 05:28N 30°01' W 093°59'0 0.0
2018-May-30 04:58N 30°01' W 093°59'0 0.0
2018-May-30 04:28N 30°01' W 093°59'0 0.0
2018-May-30 03:58N 30°01' W 093°59'0 0.0
2018-May-30 03:28N 30°01' W 093°59'0 0.0
2018-May-30 02:58N 30°01' W 093°59'0 0.0
2018-May-30 02:28N 30°01' W 093°59'0 0.0
2018-May-30 01:58N 30°01' W 093°59'0 0.0
2018-May-30 01:28N 30°01' W 093°59'0 0.0
2018-May-30 00:58N 30°01' W 093°59'0 0.0
2018-May-30 00:28N 30°01' W 093°59'0 0.0
2018-May-29 23:58N 30°01' W 093°59'0 0.3
2018-May-29 23:31N 30°01' W 093°60'2 3.5
2018-May-29 23:01N 30°01' W 093°57'3 6.2
2018-May-29 22:31N 29°59' W 093°54'3 5.9
2018-May-29 22:00N 29°58' W 093°51'4 7.2
2018-May-29 21:30N 29°55' W 093°54'4 8.2
2018-May-29 21:00N 29°51' W 093°57'4 7.1
2018-May-29 20:30N 29°48' W 093°57'4 8.9
2018-May-29 20:01N 29°45' W 093°53'5 9.2
2018-May-29 19:30N 29°41' W 093°50'510.0
2018-May-29 19:01N 29°37' W 093°48'612.5
2018-May-29 18:30N 29°32' W 093°44'5 9.4
2018-May-29 18:00N 29°28' W 093°40'4 4.6
2018-May-29 17:05N 29°24' W 093°39'0 1.3
2018-May-29 17:00N 29°24' W 093°38'0 0.2
2018-May-29 16:26N 29°24' W 093°38'0 0.0
2018-May-29 15:59N 29°24' W 093°38'0 0.0
2018-May-29 15:29N 29°24' W 093°38'0 0.0
2018-May-29 14:59N 29°24' W 093°38'0 0.0
2018-May-29 14:23N 29°24' W 093°38'0 0.0
2018-May-29 13:50N 29°24' W 093°38'0 0.0
2018-May-29 13:26N 29°24' W 093°38'0 0.0
2018-May-29 12:59N 29°24' W 093°38'0 0.0
2018-May-29 12:29N 29°24' W 093°38'0 0.0
2018-May-29 11:56N 29°24' W 093°38'0 0.0
2018-May-29 11:29N 29°24' W 093°38'0 0.0
2018-May-29 10:59N 29°24' W 093°38'0 0.1
2018-May-29 10:29N 29°24' W 093°38'0 0.0
2018-May-29 09:59N 29°24' W 093°38'0 0.0
2018-May-29 09:29N 29°24' W 093°38'0 0.0
2018-May-29 08:47N 29°24' W 093°38'0 0.0
2018-May-29 08:14N 29°24' W 093°38'0 0.0
2018-May-29 07:44N 29°24' W 093°38'0 0.0
2018-May-28 23:29N 29°24' W 093°39'0 0.0
2018-May-28 22:14N 29°24' W 093°39'0 0.1
2018-May-28 20:55N 29°24' W 093°39'  

Dump ship's entire track history